createdAt,value
2022-10-06T00:00:39.634Z,91.56
2022-10-06T00:03:08.031Z,91.37
2022-10-06T00:05:36.339Z,91.65
2022-10-06T00:08:04.910Z,91.40
2022-10-06T00:10:33.811Z,91.29
2022-10-06T00:13:03.600Z,91.65
2022-10-06T00:15:32.977Z,91.75
2022-10-06T00:18:02.656Z,91.47
2022-10-06T00:20:31.297Z,91.17
2022-10-06T00:22:59.555Z,91.33
2022-10-06T00:25:28.648Z,91.19
2022-10-06T00:27:57.069Z,91.32
2022-10-06T00:30:28.543Z,91.03
2022-10-06T00:32:58.013Z,91.01
2022-10-06T00:35:26.876Z,91.30
2022-10-06T00:37:55.563Z,91.24
2022-10-06T00:40:24.335Z,91.48
2022-10-06T00:42:55.210Z,91.38
2022-10-06T00:45:30.199Z,91.40
2022-10-06T00:48:01.036Z,91.12
2022-10-06T00:50:29.905Z,91.48
2022-10-06T00:52:59.537Z,91.66
2022-10-06T00:55:27.918Z,91.60
2022-10-06T00:57:56.265Z,91.74
2022-10-06T01:00:24.564Z,91.74
2022-10-06T01:02:58.192Z,91.87
2022-10-06T01:05:29.438Z,91.79
2022-10-06T01:07:57.973Z,91.59
2022-10-06T01:10:27.530Z,91.48
2022-10-06T01:12:56.393Z,91.53
2022-10-06T01:15:25.590Z,91.69
2022-10-06T01:17:58.481Z,91.46
2022-10-06T01:20:26.879Z,91.56
2022-10-06T01:23:01.186Z,91.60
2022-10-06T01:25:30.218Z,91.66
2022-10-06T01:27:58.842Z,91.94
2022-10-06T01:30:31.585Z,91.60
2022-10-06T01:33:00.034Z,91.66
2022-10-06T01:35:28.835Z,91.80
2022-10-06T01:37:59.730Z,91.59
2022-10-06T01:40:29.650Z,91.57
2022-10-06T01:43:01.239Z,91.54
2022-10-06T01:45:30.098Z,91.45
2022-10-06T01:47:58.403Z,91.51
2022-10-06T01:50:26.932Z,91.53
2022-10-06T01:52:58.509Z,91.57
2022-10-06T01:55:27.216Z,91.32
2022-10-06T01:57:57.918Z,91.43
2022-10-06T02:00:26.600Z,91.40
2022-10-06T02:02:55.654Z,91.25
2022-10-06T02:05:24.052Z,91.45
2022-10-06T02:07:54.509Z,91.37
2022-10-06T02:10:24.500Z,91.06
2022-10-06T02:12:54.414Z,91.31
2022-10-06T02:15:24.160Z,91.19
2022-10-06T02:17:53.050Z,91.32
2022-10-06T02:20:21.674Z,90.95
2022-10-06T02:22:51.458Z,91.16
2022-10-06T02:25:19.898Z,91.21
2022-10-06T02:27:49.639Z,91.06
2022-10-06T02:30:18.313Z,90.86
2022-10-06T02:32:48.016Z,90.93
2022-10-06T02:35:16.319Z,90.29
2022-10-06T02:37:46.127Z,90.53
2022-10-06T02:40:18.787Z,90.63
2022-10-06T02:42:48.019Z,90.50
2022-10-06T02:45:22.531Z,90.46
2022-10-06T02:47:51.927Z,90.96
2022-10-06T02:50:20.829Z,90.73
2022-10-06T02:52:49.212Z,90.97
2022-10-06T02:55:17.714Z,91.01
2022-10-06T02:57:46.032Z,90.97
2022-10-06T03:00:16.185Z,90.66
2022-10-06T03:02:50.946Z,90.85
2022-10-06T03:05:19.287Z,90.43
2022-10-06T03:07:47.704Z,90.50
2022-10-06T03:10:16.602Z,90.80
2022-10-06T03:12:44.880Z,90.65
2022-10-06T03:15:13.631Z,90.71
2022-10-06T03:17:42.104Z,90.57
2022-10-06T03:20:11.845Z,90.55
2022-10-06T03:22:40.166Z,90.06
2022-10-06T03:25:09.831Z,89.71
2022-10-06T03:27:39.066Z,90.00
2022-10-06T03:30:09.196Z,89.95
2022-10-06T03:32:38.663Z,90.12
2022-10-06T03:35:11.521Z,90.23
2022-10-06T03:37:40.451Z,90.47
2022-10-06T03:40:09.886Z,89.78
2022-10-06T03:42:39.100Z,89.56
2022-10-06T03:45:08.789Z,89.78
2022-10-06T03:47:37.146Z,89.39
2022-10-06T03:50:06.160Z,89.60
2022-10-06T03:52:36.363Z,89.66
2022-10-06T03:55:04.980Z,89.19
2022-10-06T03:57:33.372Z,89.08
2022-10-06T04:00:02.973Z,89.20
2022-10-06T04:02:40.888Z,88.84
2022-10-06T04:05:11.746Z,88.92
2022-10-06T04:07:41.467Z,89.03
2022-10-06T04:10:11.479Z,89.06
2022-10-06T04:12:39.868Z,89.60
2022-10-06T04:15:08.996Z,89.52
2022-10-06T04:17:37.864Z,89.32
2022-10-06T04:20:07.031Z,89.21
2022-10-06T04:22:35.311Z,89.19
2022-10-06T04:25:05.421Z,88.83
2022-10-06T04:27:33.819Z,88.67
2022-10-06T04:30:09.516Z,88.95
2022-10-06T04:32:38.344Z,88.63
2022-10-06T04:35:07.422Z,88.18
2022-10-06T04:37:35.757Z,88.79
2022-10-06T04:40:07.743Z,88.31
2022-10-06T04:42:36.965Z,88.40
2022-10-06T04:45:10.603Z,88.03
2022-10-06T04:47:41.142Z,87.97
2022-10-06T04:50:11.207Z,87.36
2022-10-06T04:52:52.436Z,87.88
2022-10-06T04:55:22.536Z,87.62
2022-10-06T04:57:51.070Z,87.43
2022-10-06T05:00:26.883Z,87.56
2022-10-06T05:02:57.011Z,86.93
2022-10-06T05:05:25.594Z,87.28
2022-10-06T05:07:55.898Z,87.13
2022-10-06T05:10:26.180Z,86.75
2022-10-06T05:12:55.101Z,85.96
2022-10-06T05:15:23.531Z,86.47
2022-10-06T05:17:52.574Z,86.22
2022-10-06T05:20:22.922Z,86.37
2022-10-06T05:22:52.345Z,85.80
2022-10-06T05:25:20.978Z,86.29
2022-10-06T05:27:50.783Z,85.77
2022-10-06T05:30:19.286Z,86.48
2022-10-06T05:32:50.482Z,85.80
2022-10-06T05:35:19.709Z,86.21
2022-10-06T05:37:48.182Z,86.36
2022-10-06T05:40:17.427Z,86.22
2022-10-06T05:42:46.033Z,85.73
2022-10-06T05:45:16.254Z,85.28
2022-10-06T05:47:44.737Z,85.07
2022-10-06T05:50:13.144Z,84.80
2022-10-06T05:52:42.273Z,84.29
2022-10-06T05:55:11.158Z,83.98
2022-10-06T05:57:40.388Z,83.78
2022-10-06T06:00:09.891Z,83.57
2022-10-06T06:02:42.964Z,83.96
2022-10-06T06:05:13.293Z,83.27
2022-10-06T06:07:42.168Z,83.83
2022-10-06T06:10:10.679Z,83.45
2022-10-06T06:12:39.713Z,82.91
2022-10-06T06:15:45.272Z,82.20
2022-10-06T06:18:15.360Z,81.85
2022-10-06T06:20:43.838Z,82.20
2022-10-06T06:23:12.197Z,82.30
2022-10-06T06:25:40.687Z,82.64
2022-10-06T06:28:09.313Z,81.97
2022-10-06T06:30:37.908Z,82.59
2022-10-06T06:33:06.253Z,82.22
2022-10-06T06:35:38.005Z,83.27
2022-10-06T06:38:11.907Z,83.88
2022-10-06T06:40:41.945Z,83.68
2022-10-06T06:43:13.459Z,84.17
2022-10-06T06:46:15.190Z,83.63
2022-10-06T06:49:20.663Z,83.49
2022-10-06T06:51:55.397Z,83.64
2022-10-06T06:54:27.395Z,83.01
2022-10-06T06:57:01.747Z,82.47
2022-10-06T06:59:33.137Z,82.31
2022-10-06T07:02:03.489Z,81.41
2022-10-06T07:04:37.471Z,81.33
2022-10-06T07:07:09.931Z,80.98
2022-10-06T07:09:38.653Z,80.76
2022-10-06T07:12:11.744Z,80.98
2022-10-06T07:14:58.767Z,80.89
2022-10-06T07:17:45.480Z,81.03
2022-10-06T07:20:30.934Z,81.42
2022-10-06T07:23:19.053Z,80.73
2022-10-06T07:25:47.542Z,80.72
2022-10-06T07:28:17.332Z,80.35
2022-10-06T07:30:46.420Z,79.98
2022-10-06T07:33:16.258Z,80.10
2022-10-06T07:35:46.389Z,79.60
2022-10-06T07:38:19.621Z,79.60
2022-10-06T07:41:17.734Z,79.63
2022-10-06T07:43:47.029Z,79.79
2022-10-06T07:46:19.469Z,79.43
2022-10-06T07:48:55.598Z,79.79
2022-10-06T07:51:27.464Z,79.58
2022-10-06T07:53:59.539Z,79.78
2022-10-06T07:56:35.504Z,79.80
2022-10-06T07:59:04.087Z,79.70
2022-10-06T08:01:32.520Z,79.92
2022-10-06T08:04:02.546Z,80.42
2022-10-06T08:06:30.929Z,81.00
2022-10-06T08:09:00.623Z,81.03
2022-10-06T08:11:30.724Z,81.49
2022-10-06T08:13:59.470Z,81.40
2022-10-06T08:16:30.452Z,81.86
2022-10-06T08:19:00.486Z,81.75
2022-10-06T08:21:30.373Z,81.48
2022-10-06T08:24:01.558Z,81.39
2022-10-06T08:26:31.191Z,81.71
2022-10-06T08:29:03.260Z,81.14
2022-10-06T08:31:32.826Z,81.60
2022-10-06T08:34:01.544Z,81.74
2022-10-06T08:36:32.405Z,81.43
2022-10-06T08:39:02.617Z,80.81
2022-10-06T08:41:40.177Z,80.84
2022-10-06T08:44:19.795Z,80.55
2022-10-06T08:46:54.404Z,80.30
2022-10-06T08:49:23.237Z,80.15
2022-10-06T08:51:56.122Z,79.84
2022-10-06T08:54:30.359Z,80.00
2022-10-06T08:57:03.726Z,80.24
2022-10-06T08:59:35.222Z,79.82
2022-10-06T09:02:24.717Z,80.19
2022-10-06T09:04:53.196Z,80.15
2022-10-06T09:07:26.586Z,80.31
2022-10-06T09:10:06.368Z,80.25
2022-10-06T09:12:38.553Z,80.51
2022-10-06T09:15:21.610Z,81.09
2022-10-06T09:17:54.423Z,81.12
2022-10-06T09:20:31.661Z,80.90
2022-10-06T09:23:00.335Z,80.62
2022-10-06T09:25:31.401Z,81.05
2022-10-06T09:28:01.233Z,80.97
2022-10-06T09:30:29.715Z,81.44
2022-10-06T09:33:00.922Z,81.46
2022-10-06T09:35:31.298Z,81.29
2022-10-06T09:38:08.207Z,81.08
2022-10-06T09:40:42.178Z,81.20
2022-10-06T09:43:19.998Z,81.20
2022-10-06T09:45:48.343Z,81.24
2022-10-06T09:48:24.810Z,80.96
2022-10-06T09:51:13.784Z,81.22
2022-10-06T09:53:44.720Z,80.95
2022-10-06T09:56:19.058Z,80.66
2022-10-06T09:58:56.597Z,80.15
2022-10-06T10:01:26.894Z,80.12
2022-10-06T10:04:20.571Z,79.86
2022-10-06T10:06:49.597Z,79.92
2022-10-06T10:09:30.904Z,79.51
2022-10-06T10:12:28.878Z,79.06
2022-10-06T10:15:00.490Z,79.23
2022-10-06T10:17:39.834Z,78.79
2022-10-06T10:20:28.055Z,78.05
2022-10-06T10:22:57.556Z,77.58
2022-10-06T10:25:45.781Z,76.65
2022-10-06T10:28:27.308Z,76.13
2022-10-06T10:31:03.662Z,75.32
2022-10-06T10:33:43.193Z,75.24
2022-10-06T10:36:19.000Z,74.66
2022-10-06T10:38:48.010Z,74.44
2022-10-06T10:41:20.213Z,74.65
2022-10-06T10:43:53.645Z,74.95
2022-10-06T10:46:27.339Z,75.47
2022-10-06T10:48:59.271Z,75.23
2022-10-06T10:51:30.831Z,75.83
2022-10-06T10:54:05.184Z,75.55
2022-10-06T10:56:34.445Z,75.63
2022-10-06T10:59:08.503Z,75.58
2022-10-06T11:01:42.183Z,75.56
2022-10-06T11:04:12.918Z,75.42
2022-10-06T11:06:55.084Z,75.65
2022-10-06T11:09:27.939Z,75.44
2022-10-06T11:12:12.264Z,75.74
2022-10-06T11:14:50.582Z,75.41
2022-10-06T11:17:29.967Z,75.91
2022-10-06T11:20:03.993Z,75.81
2022-10-06T11:22:38.510Z,75.95
2022-10-06T11:25:13.672Z,76.14
2022-10-06T11:27:45.530Z,76.69
2022-10-06T11:30:19.537Z,76.29
2022-10-06T11:33:01.413Z,76.53
2022-10-06T11:35:35.358Z,76.80
2022-10-06T11:38:10.148Z,76.77
2022-10-06T11:40:49.592Z,76.75
2022-10-06T11:43:24.370Z,76.91
2022-10-06T11:46:00.232Z,76.97
2022-10-06T11:48:29.975Z,77.14
2022-10-06T11:51:01.689Z,76.83
2022-10-06T11:53:41.007Z,77.02
2022-10-06T11:56:39.642Z,76.77
2022-10-06T11:59:13.004Z,76.40
2022-10-06T12:01:56.878Z,76.38
2022-10-06T12:04:45.361Z,76.08
2022-10-06T12:07:14.700Z,76.22
2022-10-06T12:09:51.986Z,75.92
2022-10-06T12:13:07.310Z,76.01
2022-10-06T12:19:03.481Z,75.55
2022-10-06T12:21:50.775Z,75.52
2022-10-06T12:24:37.087Z,76.02
2022-10-06T12:27:26.310Z,75.78
2022-10-06T12:30:22.129Z,76.08
2022-10-06T12:32:57.761Z,75.94
2022-10-06T12:35:30.712Z,76.34
2022-10-06T12:38:48.591Z,76.45
2022-10-06T12:41:59.631Z,76.18
2022-10-06T12:44:31.008Z,75.81
2022-10-06T12:47:04.092Z,75.47
2022-10-06T12:49:42.895Z,75.21
2022-10-06T12:52:23.636Z,75.61
2022-10-06T12:55:01.653Z,76.08
2022-10-06T12:57:33.618Z,76.25
2022-10-06T13:00:01.942Z,76.71
2022-10-06T13:02:32.003Z,76.59
2022-10-06T13:05:02.273Z,76.79
2022-10-06T13:07:35.262Z,77.00
2022-10-06T13:10:20.152Z,77.13
2022-10-06T13:12:50.361Z,76.76
2022-10-06T13:15:22.296Z,77.18
2022-10-06T13:17:55.878Z,77.21
2022-10-06T13:20:35.651Z,77.25
2022-10-06T13:23:10.343Z,77.33
2022-10-06T13:25:45.825Z,77.28
2022-10-06T13:28:26.285Z,77.27
2022-10-06T13:30:56.140Z,77.62
2022-10-06T13:33:26.997Z,77.43
2022-10-06T13:35:56.081Z,77.38
2022-10-06T13:38:25.925Z,77.28
2022-10-06T13:41:08.178Z,77.39
2022-10-06T13:43:40.567Z,77.10
2022-10-06T13:46:10.795Z,77.16
2022-10-06T13:48:45.510Z,77.25
2022-10-06T13:51:20.416Z,77.43
2022-10-06T13:53:50.469Z,77.47
2022-10-06T13:56:37.004Z,77.47
2022-10-06T13:59:31.332Z,77.51
2022-10-06T14:02:02.632Z,77.50
2022-10-06T14:04:34.637Z,77.90
2022-10-06T14:07:05.805Z,77.97
2022-10-06T14:09:35.631Z,78.09
2022-10-06T14:12:05.560Z,78.11
2022-10-06T14:14:34.612Z,78.59
2022-10-06T14:17:02.990Z,78.66
2022-10-06T14:19:36.976Z,78.66
2022-10-06T14:22:06.448Z,78.86
2022-10-06T14:24:37.546Z,78.72
2022-10-06T14:27:07.663Z,78.78
2022-10-06T14:29:38.093Z,78.45
2022-10-06T14:32:10.886Z,79.05
2022-10-06T14:34:41.186Z,79.05
2022-10-06T14:37:13.378Z,79.07
2022-10-06T14:39:43.186Z,79.20
2022-10-06T14:42:11.665Z,79.20
2022-10-06T14:44:40.014Z,79.68
2022-10-06T14:47:09.451Z,79.41
2022-10-06T14:49:38.290Z,79.36
2022-10-06T14:52:09.226Z,79.31
2022-10-06T14:54:37.951Z,79.36
2022-10-06T14:57:09.365Z,79.44
2022-10-06T14:59:37.757Z,79.54
2022-10-06T15:02:06.082Z,79.88
2022-10-06T15:04:34.427Z,80.01
2022-10-06T15:07:20.328Z,79.76
2022-10-06T15:09:48.689Z,79.85
2022-10-06T15:12:18.429Z,79.55
2022-10-06T15:14:47.719Z,79.55
2022-10-06T15:17:16.077Z,79.73
2022-10-06T15:19:44.534Z,80.21
2022-10-06T15:22:13.137Z,80.34
2022-10-06T15:24:43.291Z,80.02
2022-10-06T15:27:29.386Z,80.10
2022-10-06T15:29:59.155Z,80.01
2022-10-06T15:32:27.470Z,80.22
2022-10-06T15:34:55.910Z,79.89
2022-10-06T15:37:24.357Z,79.92
2022-10-06T15:39:53.337Z,80.01
2022-10-06T15:42:24.273Z,79.81
2022-10-06T15:44:52.907Z,80.06
2022-10-06T15:47:23.946Z,80.08
2022-10-06T15:49:52.315Z,80.44
2022-10-06T15:52:20.691Z,80.61
2022-10-06T15:54:50.068Z,80.32
2022-10-06T15:57:21.222Z,80.24
2022-10-06T15:59:49.944Z,80.43
2022-10-06T16:02:20.193Z,80.44
2022-10-06T16:05:17.070Z,80.38
2022-10-06T16:07:45.380Z,80.58
2022-10-06T16:10:14.063Z,80.71
2022-10-06T16:12:42.408Z,81.16
2022-10-06T16:15:11.591Z,81.01
2022-10-06T16:17:39.897Z,81.21
2022-10-06T16:20:11.725Z,81.03
2022-10-06T16:22:40.542Z,81.27
2022-10-06T16:25:09.719Z,81.06
2022-10-06T16:27:39.613Z,81.38
2022-10-06T16:30:09.745Z,81.30
2022-10-06T16:32:38.299Z,81.00
2022-10-06T16:35:07.799Z,81.14
2022-10-06T16:37:37.502Z,81.16
2022-10-06T16:40:07.082Z,81.18
2022-10-06T16:42:36.648Z,81.04
2022-10-06T16:45:05.648Z,81.09
2022-10-06T16:47:34.054Z,81.19
2022-10-06T16:50:02.539Z,81.19
2022-10-06T16:52:32.383Z,81.32
2022-10-06T16:55:04.547Z,81.04
2022-10-06T16:57:33.537Z,81.17
2022-10-06T17:00:05.859Z,80.97
2022-10-06T17:02:35.128Z,80.90
2022-10-06T17:05:03.520Z,81.11
2022-10-06T17:07:32.906Z,80.99
2022-10-06T17:10:19.487Z,80.71
2022-10-06T17:12:48.806Z,80.74
2022-10-06T17:15:17.334Z,80.77
2022-10-06T17:17:45.672Z,80.78
2022-10-06T17:20:14.041Z,81.11
2022-10-06T17:22:43.357Z,81.33
2022-10-06T17:25:14.212Z,81.27
2022-10-06T17:27:42.573Z,81.25
2022-10-06T17:30:11.839Z,81.18
2022-10-06T17:32:41.283Z,81.49
2022-10-06T17:35:09.945Z,81.57
2022-10-06T17:37:40.467Z,81.61
2022-10-06T17:40:09.775Z,81.74
2022-10-06T17:42:41.624Z,81.76
2022-10-06T17:45:11.596Z,81.98
2022-10-06T17:47:41.624Z,82.15
2022-10-06T17:50:10.605Z,82.27
2022-10-06T17:52:39.460Z,82.16
2022-10-06T17:55:09.045Z,82.41
2022-10-06T17:57:37.394Z,82.21
2022-10-06T18:00:09.960Z,82.10
2022-10-06T18:02:40.704Z,82.09
2022-10-06T18:05:09.594Z,82.36
2022-10-06T18:07:38.447Z,81.88
2022-10-06T18:10:36.459Z,82.13
2022-10-06T18:13:04.757Z,82.12
2022-10-06T18:15:37.853Z,82.04
2022-10-06T18:18:06.363Z,82.40
2022-10-06T18:20:40.194Z,82.42
2022-10-06T18:23:09.932Z,82.19
2022-10-06T18:25:38.291Z,82.78
2022-10-06T18:28:06.668Z,82.65
2022-10-06T18:30:35.165Z,83.10
2022-10-06T18:35:57.533Z,83.40
2022-10-06T18:38:44.453Z,83.95
2022-10-06T18:41:15.170Z,83.99
2022-10-06T18:43:43.562Z,84.36
2022-10-06T18:46:31.235Z,84.22
2022-10-06T18:49:05.862Z,84.32
2022-10-06T18:51:36.105Z,84.11
2022-10-06T18:54:06.522Z,84.12
2022-10-06T18:56:36.583Z,83.82
2022-10-06T18:59:06.214Z,83.83
2022-10-06T19:01:34.696Z,83.88
2022-10-06T19:04:05.599Z,83.64
2022-10-06T19:06:34.415Z,83.44
2022-10-06T19:09:04.471Z,83.69
2022-10-06T19:11:46.063Z,83.67
2022-10-06T19:14:15.050Z,83.62
2022-10-06T19:16:43.620Z,83.51
2022-10-06T19:19:16.488Z,83.46
2022-10-06T19:21:46.519Z,83.63
2022-10-06T19:24:17.431Z,83.50
2022-10-06T19:26:47.388Z,83.41
2022-10-06T19:29:16.293Z,83.60
2022-10-06T19:31:48.081Z,83.49
2022-10-06T19:34:19.775Z,83.64
2022-10-06T19:36:50.996Z,83.72
2022-10-06T19:39:19.715Z,83.71
2022-10-06T19:42:05.751Z,83.87
2022-10-06T19:44:34.207Z,83.78
2022-10-06T19:47:02.723Z,83.61
2022-10-06T19:49:32.587Z,83.51
2022-10-06T19:52:02.431Z,83.60
2022-10-06T19:54:31.049Z,83.75
2022-10-06T19:57:04.551Z,83.63
2022-10-06T19:59:33.883Z,84.18
2022-10-06T20:02:03.490Z,84.06
2022-10-06T20:04:33.685Z,83.76
2022-10-06T20:07:02.438Z,83.78
2022-10-06T20:09:32.574Z,83.80
2022-10-06T20:12:01.689Z,83.80
2022-10-06T20:14:30.502Z,83.95
2022-10-06T20:16:58.953Z,83.51
2022-10-06T20:19:27.493Z,83.36
2022-10-06T20:21:57.346Z,83.42
2022-10-06T20:24:26.075Z,83.36
2022-10-06T20:26:54.918Z,83.07
2022-10-06T20:29:25.426Z,83.14
2022-10-06T20:31:55.849Z,83.60
2022-10-06T20:34:25.929Z,83.43
2022-10-06T20:36:59.805Z,83.72
2022-10-06T20:39:45.819Z,83.66
2022-10-06T20:42:15.481Z,83.51
2022-10-06T20:44:44.463Z,83.70
2022-10-06T20:47:12.924Z,84.08
2022-10-06T20:49:42.672Z,84.22
2022-10-06T20:52:14.714Z,83.94
2022-10-06T20:54:44.269Z,83.80
2022-10-06T20:57:13.159Z,83.82
2022-10-06T20:59:41.775Z,83.95
2022-10-06T21:02:11.128Z,83.92
2022-10-06T21:04:41.589Z,84.35
2022-10-06T21:07:09.942Z,84.46
2022-10-06T21:09:39.780Z,84.33
2022-10-06T21:12:08.566Z,84.96
2022-10-06T21:14:37.793Z,85.37
2022-10-06T21:17:06.447Z,86.14
2022-10-06T21:19:37.888Z,86.88
2022-10-06T21:22:07.032Z,87.53
2022-10-06T21:24:35.411Z,87.87
2022-10-06T21:27:05.534Z,87.88
2022-10-06T21:29:33.894Z,88.18
2022-10-06T21:32:02.271Z,88.36
2022-10-06T21:34:30.777Z,89.27
2022-10-06T21:36:59.196Z,89.26
2022-10-06T21:39:27.653Z,89.99
2022-10-06T21:41:55.992Z,90.79
2022-10-06T21:44:25.828Z,90.67
2022-10-06T21:46:55.425Z,91.30
2022-10-06T21:49:24.947Z,91.32
2022-10-06T21:51:55.240Z,91.62
2022-10-06T21:54:24.785Z,91.89
2022-10-06T21:56:53.551Z,91.99
2022-10-06T21:59:21.971Z,92.65
2022-10-06T22:01:51.754Z,92.56
2022-10-06T22:04:20.237Z,92.78
2022-10-06T22:06:50.728Z,92.64
2022-10-06T22:09:20.544Z,92.54
2022-10-06T22:11:49.068Z,92.49
2022-10-06T22:14:19.034Z,92.76
2022-10-06T22:16:47.452Z,93.01
2022-10-06T22:19:18.115Z,92.93
2022-10-06T22:21:48.432Z,92.61
2022-10-06T22:24:18.160Z,92.72
2022-10-06T22:26:46.944Z,92.42
2022-10-06T22:29:16.625Z,92.47
2022-10-06T22:31:46.228Z,92.58
2022-10-06T22:34:18.884Z,92.76
2022-10-06T22:36:47.460Z,92.44
2022-10-06T22:39:15.868Z,92.27
2022-10-06T22:41:44.271Z,92.69
2022-10-06T22:44:12.689Z,92.61
2022-10-06T22:46:41.157Z,92.72
2022-10-06T22:49:09.593Z,92.43
2022-10-06T22:51:39.447Z,92.29
2022-10-06T22:54:07.845Z,92.54
2022-10-06T22:56:36.182Z,92.65
2022-10-06T22:59:04.746Z,92.84
2022-10-06T23:01:33.043Z,92.37
2022-10-06T23:04:01.388Z,92.63
2022-10-06T23:06:31.443Z,92.50
2022-10-06T23:09:01.420Z,92.51
2022-10-06T23:11:29.810Z,92.46
2022-10-06T23:13:58.626Z,92.19
2022-10-06T23:16:27.048Z,92.17
2022-10-06T23:18:56.169Z,92.24
2022-10-06T23:21:27.848Z,92.23
2022-10-06T23:24:00.413Z,91.83
2022-10-06T23:26:30.184Z,92.04
2022-10-06T23:29:00.735Z,91.76
2022-10-06T23:31:29.909Z,91.54
2022-10-06T23:33:58.804Z,91.75
2022-10-06T23:36:27.125Z,91.66
2022-10-06T23:38:55.927Z,91.33
2022-10-06T23:41:24.292Z,92.03
2022-10-06T23:43:54.007Z,91.98
2022-10-06T23:46:22.477Z,92.11
2022-10-06T23:48:51.360Z,92.02
2022-10-06T23:51:19.710Z,92.12
2022-10-06T23:53:48.340Z,91.49
2022-10-06T23:56:16.680Z,92.06
2022-10-06T23:58:45.072Z,91.64
